createdAt,value
2022-11-25T00:01:20.000Z,62.80
2022-11-25T00:03:57.560Z,62.70
2022-11-25T00:06:35.344Z,62.30
2022-11-25T00:09:12.562Z,62.00
2022-11-25T00:11:47.434Z,61.60
2022-11-25T00:14:22.347Z,61.30
2022-11-25T00:16:57.228Z,61.50
2022-11-25T00:19:32.156Z,61.60
2022-11-25T00:22:06.990Z,61.50
2022-11-25T00:24:41.825Z,62.40
2022-11-25T00:27:16.652Z,62.40
2022-11-25T00:29:51.514Z,63.10
2022-11-25T00:32:26.426Z,63.60
2022-11-25T00:35:01.274Z,63.60
2022-11-25T00:37:36.119Z,63.60
2022-11-25T00:40:13.455Z,64.50
2022-11-25T00:43:06.628Z,64.80
2022-11-25T00:45:42.118Z,64.80
2022-11-25T00:48:17.988Z,64.70
2022-11-25T00:50:52.817Z,64.70
2022-11-25T00:53:27.700Z,64.70
2022-11-25T00:56:20.754Z,64.50
2022-11-25T00:58:55.894Z,64.60
2022-11-25T01:01:30.962Z,64.70
2022-11-25T01:04:07.489Z,64.70
2022-11-25T01:06:42.422Z,64.50
2022-11-25T01:09:17.304Z,64.60
2022-11-25T01:11:53.122Z,64.70
2022-11-25T01:14:28.044Z,64.20
2022-11-25T01:17:03.365Z,64.60
2022-11-25T01:19:41.928Z,64.50
2022-11-25T01:22:16.754Z,64.20
2022-11-25T01:24:51.609Z,63.90
2022-11-25T01:27:28.392Z,63.80
2022-11-25T01:30:03.546Z,63.80
2022-11-25T01:32:38.404Z,63.90
2022-11-25T01:35:14.817Z,63.90
2022-11-25T01:37:49.713Z,63.70
2022-11-25T01:40:24.642Z,63.60
2022-11-25T01:42:59.534Z,63.60
2022-11-25T01:45:37.362Z,63.50
2022-11-25T01:48:23.055Z,63.40
2022-11-25T01:50:58.016Z,63.20
2022-11-25T01:53:34.645Z,63.10
2022-11-25T01:56:09.560Z,62.50
2022-11-25T01:58:47.422Z,62.40
2022-11-25T02:01:23.083Z,62.50
2022-11-25T02:04:00.980Z,62.40
2022-11-25T02:06:45.365Z,62.30
2022-11-25T02:09:23.027Z,62.20
2022-11-25T02:11:58.451Z,62.00
2022-11-25T02:14:33.917Z,62.00
2022-11-25T02:17:09.045Z,62.10
2022-11-25T02:19:53.591Z,61.90
2022-11-25T02:22:54.390Z,62.10
2022-11-25T02:25:36.262Z,61.40
2022-11-25T02:28:24.664Z,61.50
2022-11-25T02:30:59.928Z,61.70
2022-11-25T02:33:34.961Z,61.60
2022-11-25T02:36:16.733Z,61.80
2022-11-25T02:39:03.353Z,61.80
2022-11-25T02:41:47.573Z,62.00
2022-11-25T02:44:22.706Z,61.70
2022-11-25T02:46:57.634Z,61.30
2022-11-25T02:49:32.854Z,61.90
2022-11-25T02:52:07.841Z,62.00
2022-11-25T02:54:42.748Z,61.90
2022-11-25T02:57:17.630Z,61.70
2022-11-25T02:59:52.877Z,61.20
2022-11-25T03:02:27.887Z,61.60
2022-11-25T03:05:02.852Z,61.20
2022-11-25T03:07:37.948Z,61.30
2022-11-25T03:10:13.137Z,61.10
2022-11-25T03:12:48.686Z,61.40
2022-11-25T03:15:24.110Z,61.10
2022-11-25T03:17:58.981Z,61.30
2022-11-25T03:20:36.695Z,61.10
2022-11-25T03:23:11.629Z,61.80
2022-11-25T03:25:46.563Z,61.70
2022-11-25T03:28:21.543Z,61.50
2022-11-25T03:30:56.863Z,60.70
2022-11-25T03:33:33.082Z,61.10
2022-11-25T03:36:08.190Z,61.00
2022-11-25T03:38:43.052Z,60.60
2022-11-25T03:41:18.089Z,60.30
2022-11-25T03:43:53.038Z,60.10
2022-11-25T03:46:28.060Z,60.00
2022-11-25T03:49:03.536Z,60.10
2022-11-25T03:51:38.586Z,59.60
2022-11-25T03:54:13.747Z,59.40
2022-11-25T03:57:14.462Z,59.70
2022-11-25T03:59:49.359Z,59.80
2022-11-25T04:02:25.977Z,60.00
2022-11-25T04:05:00.981Z,60.10
2022-11-25T04:07:36.039Z,60.30
2022-11-25T04:10:14.322Z,60.30
2022-11-25T04:12:52.462Z,60.50
2022-11-25T04:15:31.791Z,60.60
2022-11-25T04:18:07.487Z,60.80
2022-11-25T04:20:42.736Z,60.40
2022-11-25T04:23:17.791Z,60.50
2022-11-25T04:26:01.213Z,61.10
2022-11-25T04:28:43.871Z,61.30
2022-11-25T04:31:19.048Z,61.10
2022-11-25T04:33:55.079Z,61.20
2022-11-25T04:36:31.691Z,60.50
2022-11-25T04:39:06.655Z,61.30
2022-11-25T04:41:43.855Z,61.30
2022-11-25T04:44:18.755Z,61.10
2022-11-25T04:46:53.712Z,60.80
2022-11-25T04:49:28.920Z,60.80
2022-11-25T04:52:04.547Z,60.70
2022-11-25T04:54:39.551Z,60.20
2022-11-25T04:57:16.048Z,59.80
2022-11-25T04:59:53.419Z,59.50
2022-11-25T05:02:28.910Z,59.10
2022-11-25T05:05:13.612Z,59.20
2022-11-25T05:07:48.590Z,59.10
2022-11-25T05:10:23.685Z,58.90
2022-11-25T05:12:59.048Z,58.70
2022-11-25T05:15:33.925Z,58.50
2022-11-25T05:18:11.667Z,58.70
2022-11-25T05:20:53.056Z,58.70
2022-11-25T05:23:29.627Z,58.90
2022-11-25T05:26:05.312Z,58.70
2022-11-25T05:28:49.829Z,59.00
2022-11-25T05:31:24.785Z,59.20
2022-11-25T05:34:03.950Z,59.40
2022-11-25T05:36:39.106Z,60.00
2022-11-25T05:39:14.104Z,60.00
2022-11-25T05:42:17.894Z,60.60
2022-11-25T05:44:53.462Z,60.20
2022-11-25T05:47:28.424Z,60.50
2022-11-25T05:50:03.818Z,60.60
2022-11-25T05:52:39.188Z,60.90
2022-11-25T05:55:14.403Z,60.70
2022-11-25T05:57:50.484Z,60.40
2022-11-25T06:00:27.121Z,60.30
2022-11-25T06:03:02.975Z,60.30
2022-11-25T06:05:38.341Z,60.60
2022-11-25T06:08:13.414Z,60.40
2022-11-25T06:10:48.647Z,60.20
2022-11-25T06:13:24.052Z,59.90
2022-11-25T06:16:03.550Z,59.80
2022-11-25T06:18:43.434Z,60.20
2022-11-25T06:21:19.195Z,60.70
2022-11-25T06:23:54.102Z,61.10
2022-11-25T06:26:29.199Z,60.90
2022-11-25T06:29:04.249Z,61.30
2022-11-25T06:31:39.209Z,61.80
2022-11-25T06:34:32.895Z,61.80
2022-11-25T06:37:10.301Z,61.50
2022-11-25T06:39:45.215Z,61.10
2022-11-25T06:42:20.104Z,61.60
2022-11-25T06:44:54.972Z,61.90
2022-11-25T06:47:30.152Z,62.10
2022-11-25T06:50:05.961Z,62.30
2022-11-25T06:52:40.884Z,62.70
2022-11-25T06:55:15.889Z,62.80
2022-11-25T06:57:53.336Z,63.20
2022-11-25T07:00:30.773Z,63.60
2022-11-25T07:03:05.689Z,63.90
2022-11-25T07:05:40.590Z,64.10
2022-11-25T07:08:15.659Z,64.40
2022-11-25T07:10:51.302Z,64.30
2022-11-25T07:13:26.238Z,64.20
2022-11-25T07:16:06.883Z,64.00
2022-11-25T07:18:42.427Z,63.70
2022-11-25T07:21:23.991Z,62.90
2022-11-25T07:24:02.819Z,62.20
2022-11-25T07:26:41.184Z,61.80
2022-11-25T07:29:51.651Z,61.20
2022-11-25T07:32:11.753Z,60.40
2022-11-25T07:34:46.662Z,59.20
2022-11-25T07:37:21.631Z,59.10
2022-11-25T07:39:56.587Z,59.00
2022-11-25T07:42:31.511Z,59.00
2022-11-25T07:45:07.128Z,58.90
2022-11-25T07:47:50.131Z,58.60
2022-11-25T07:50:25.071Z,58.40
2022-11-25T07:53:00.025Z,58.30
2022-11-25T07:55:35.195Z,58.00
2022-11-25T07:58:10.092Z,57.60
2022-11-25T08:00:45.010Z,57.20
2022-11-25T08:03:20.023Z,56.90
2022-11-25T08:05:55.171Z,56.60
2022-11-25T08:08:30.261Z,56.30
2022-11-25T08:11:33.029Z,56.00
2022-11-25T08:14:08.509Z,55.70
2022-11-25T08:16:43.695Z,55.40
2022-11-25T08:19:19.390Z,55.00
2022-11-25T08:21:54.762Z,54.60
2022-11-25T08:24:29.772Z,54.10
2022-11-25T08:27:05.203Z,53.50
2022-11-25T08:29:40.115Z,52.90
2022-11-25T08:32:15.163Z,52.60
2022-11-25T08:34:50.214Z,52.20
2022-11-25T08:37:25.353Z,51.70
2022-11-25T08:40:01.093Z,51.30
2022-11-25T08:42:38.130Z,51.60
2022-11-25T08:45:13.075Z,51.50
2022-11-25T08:47:48.039Z,51.80
2022-11-25T08:50:26.483Z,52.30
2022-11-25T08:53:01.753Z,52.30
2022-11-25T08:55:38.864Z,52.10
2022-11-25T08:58:13.864Z,51.80
2022-11-25T09:00:48.797Z,51.60
2022-11-25T09:03:23.982Z,51.60
2022-11-25T09:05:59.109Z,51.40
2022-11-25T09:08:34.604Z,51.30
2022-11-25T09:11:10.813Z,51.10
2022-11-25T09:13:45.866Z,50.90
2022-11-25T09:16:21.359Z,50.80
2022-11-25T09:18:56.647Z,50.50
2022-11-25T09:21:31.567Z,50.00
2022-11-25T09:24:06.676Z,49.60
2022-11-25T09:26:42.241Z,49.50
2022-11-25T09:29:17.215Z,48.80
2022-11-25T09:31:54.967Z,48.30
2022-11-25T09:34:30.300Z,47.30
2022-11-25T09:37:05.521Z,46.50
2022-11-25T09:39:40.687Z,46.00
2022-11-25T09:42:58.258Z,45.70
2022-11-25T09:46:28.276Z,45.40
2022-11-25T09:49:47.446Z,45.20
2022-11-25T09:52:49.618Z,44.60
2022-11-25T09:55:31.484Z,44.20
2022-11-25T09:58:17.783Z,44.10
2022-11-25T10:00:53.468Z,44.10
2022-11-25T10:03:45.759Z,43.90
2022-11-25T10:06:24.747Z,43.40
2022-11-25T10:09:07.187Z,43.20
2022-11-25T10:11:56.402Z,42.10
2022-11-25T10:14:48.918Z,41.60
2022-11-25T10:17:52.039Z,41.40
2022-11-25T10:20:34.500Z,41.00
2022-11-25T10:23:26.441Z,40.60
2022-11-25T10:26:15.037Z,40.60
2022-11-25T10:29:41.962Z,40.60
2022-11-25T10:32:25.660Z,40.60
2022-11-25T10:35:07.719Z,40.60
2022-11-25T10:37:45.713Z,40.50
2022-11-25T10:40:20.902Z,40.40
2022-11-25T10:42:55.880Z,40.40
2022-11-25T10:45:55.537Z,40.30
2022-11-25T10:48:38.854Z,40.40
2022-11-25T10:51:48.574Z,40.40
2022-11-25T10:54:28.071Z,40.50
2022-11-25T10:57:14.465Z,40.40
2022-11-25T10:59:59.004Z,40.50
2022-11-25T11:02:41.329Z,40.50
2022-11-25T11:05:23.685Z,40.50
2022-11-25T11:08:13.806Z,40.40
2022-11-25T11:11:11.257Z,40.30
2022-11-25T11:13:47.538Z,40.30
2022-11-25T11:16:34.472Z,40.10
2022-11-25T11:19:26.711Z,39.80
2022-11-25T11:22:23.491Z,39.80
2022-11-25T11:25:20.262Z,39.50
2022-11-25T11:27:55.542Z,39.60
2022-11-25T11:30:32.974Z,39.90
2022-11-25T11:33:42.484Z,40.10
2022-11-25T11:36:48.833Z,40.30
2022-11-25T11:40:03.899Z,40.20
2022-11-25T11:42:52.671Z,40.20
2022-11-25T11:46:28.223Z,40.30
2022-11-25T11:49:47.879Z,40.80
2022-11-25T11:52:41.567Z,41.70
2022-11-25T11:55:43.822Z,43.60
2022-11-25T11:58:50.013Z,45.60
2022-11-25T12:01:49.425Z,48.20
2022-11-25T12:05:03.213Z,50.90
2022-11-25T12:08:06.519Z,52.80
2022-11-25T12:11:03.344Z,53.40
2022-11-25T12:13:50.765Z,54.30
2022-11-25T12:16:48.721Z,55.20
2022-11-25T12:20:08.107Z,55.40
2022-11-25T12:23:01.331Z,55.50
2022-11-25T12:25:40.680Z,56.80
2022-11-25T12:28:46.278Z,57.30
2022-11-25T12:31:27.778Z,57.60
2022-11-25T12:34:15.931Z,57.40
2022-11-25T12:36:59.397Z,58.10
2022-11-25T12:39:41.423Z,58.20
2022-11-25T12:42:25.809Z,58.40
2022-11-25T12:45:17.686Z,58.60
2022-11-25T12:47:53.651Z,59.10
2022-11-25T12:51:10.704Z,58.60
2022-11-25T12:54:17.690Z,58.80
2022-11-25T12:57:01.458Z,59.00
2022-11-25T12:59:39.161Z,59.70
2022-11-25T13:02:47.765Z,59.40
2022-11-25T13:05:49.826Z,60.10
2022-11-25T13:09:05.326Z,59.70
2022-11-25T13:12:04.706Z,61.20
2022-11-25T13:14:54.909Z,61.70
2022-11-25T13:17:34.160Z,61.80
2022-11-25T13:20:27.497Z,62.00
2022-11-25T13:23:05.552Z,62.10
2022-11-25T13:25:43.996Z,62.10
2022-11-25T13:28:38.311Z,62.40
2022-11-25T13:31:20.864Z,62.60
2022-11-25T13:34:32.101Z,62.10
2022-11-25T13:37:33.542Z,61.30
2022-11-25T13:40:29.429Z,60.30
2022-11-25T13:43:05.897Z,59.40
2022-11-25T13:45:44.849Z,58.50
2022-11-25T13:48:32.236Z,58.10
2022-11-25T13:51:22.291Z,57.60
2022-11-25T13:54:05.421Z,57.50
2022-11-25T13:56:40.361Z,57.50
2022-11-25T13:59:20.063Z,57.80
2022-11-25T14:01:55.274Z,57.50
2022-11-25T14:05:29.797Z,54.10
2022-11-25T14:08:25.775Z,54.40
2022-11-25T14:11:09.452Z,53.00
2022-11-25T14:14:37.933Z,51.90
2022-11-25T14:17:39.848Z,49.00
2022-11-25T14:20:48.305Z,48.00
2022-11-25T14:23:47.821Z,46.70
2022-11-25T14:26:49.195Z,46.10
2022-11-25T14:29:37.706Z,45.10
2022-11-25T14:32:35.308Z,44.30
2022-11-25T14:35:22.581Z,44.20
2022-11-25T14:38:04.167Z,43.40
2022-11-25T14:40:53.047Z,43.30
2022-11-25T14:43:37.403Z,42.90
2022-11-25T14:46:16.661Z,42.20
2022-11-25T14:49:02.933Z,42.10
2022-11-25T14:51:39.038Z,41.70
2022-11-25T14:54:14.715Z,41.10
2022-11-25T14:56:49.917Z,40.80
2022-11-25T14:59:26.989Z,41.10
2022-11-25T15:02:02.002Z,40.50
2022-11-25T15:04:41.864Z,40.80
2022-11-25T15:07:30.723Z,40.80
2022-11-25T15:10:07.438Z,40.50
2022-11-25T15:12:47.152Z,40.50
2022-11-25T15:15:27.543Z,40.70
2022-11-25T15:18:06.958Z,40.80
2022-11-25T15:20:51.279Z,40.70
2022-11-25T15:23:36.315Z,40.70
2022-11-25T15:26:22.779Z,40.90
2022-11-25T15:29:10.958Z,40.70
2022-11-25T15:31:48.531Z,40.10
2022-11-25T15:34:24.645Z,39.90
2022-11-25T15:37:03.100Z,40.30
2022-11-25T15:39:38.885Z,40.30
2022-11-25T15:42:23.213Z,40.20
2022-11-25T15:45:10.418Z,40.00
2022-11-25T15:47:45.720Z,39.70
2022-11-25T15:50:26.070Z,39.80
2022-11-25T15:53:01.716Z,40.30
2022-11-25T15:55:39.610Z,40.30
2022-11-25T15:58:21.936Z,40.40
2022-11-25T16:01:24.480Z,40.70
2022-11-25T16:04:21.305Z,40.90
2022-11-25T16:06:59.475Z,41.00
2022-11-25T16:09:34.607Z,40.90
2022-11-25T16:12:17.842Z,40.60
2022-11-25T16:14:52.724Z,40.60
2022-11-25T16:17:28.192Z,40.40
2022-11-25T16:20:03.546Z,40.60
2022-11-25T16:22:38.450Z,40.60
2022-11-25T16:25:17.281Z,40.40
2022-11-25T16:27:52.974Z,40.40
2022-11-25T16:30:28.590Z,40.60
2022-11-25T16:33:10.621Z,40.80
2022-11-25T16:35:45.588Z,40.90
2022-11-25T16:38:20.547Z,41.00
2022-11-25T16:40:56.622Z,40.90
2022-11-25T16:43:31.524Z,41.10
2022-11-25T16:46:07.070Z,41.40
2022-11-25T16:48:42.045Z,41.10
2022-11-25T16:51:20.275Z,41.00
2022-11-25T16:53:55.167Z,40.80
2022-11-25T16:56:30.486Z,40.80
2022-11-25T16:59:05.561Z,40.70
2022-11-25T17:01:40.591Z,40.70
2022-11-25T17:04:15.811Z,40.60
2022-11-25T17:07:16.624Z,40.40
2022-11-25T17:09:46.657Z,40.50
2022-11-25T17:12:30.066Z,40.80
2022-11-25T17:15:08.681Z,41.20
2022-11-25T17:17:47.831Z,41.20
2022-11-25T17:20:25.135Z,41.50
2022-11-25T17:23:00.311Z,41.70
2022-11-25T17:25:37.279Z,41.60
2022-11-25T17:28:17.876Z,41.50
2022-11-25T17:30:52.934Z,41.30
2022-11-25T17:33:27.848Z,41.70
2022-11-25T17:36:02.862Z,41.50
2022-11-25T17:38:40.283Z,41.40
2022-11-25T17:41:25.266Z,41.20
2022-11-25T17:44:01.215Z,40.80
2022-11-25T17:46:36.110Z,40.70
2022-11-25T17:49:15.442Z,40.80
2022-11-25T17:51:50.574Z,40.80
2022-11-25T17:54:25.490Z,40.80
2022-11-25T17:57:00.541Z,40.90
2022-11-25T17:59:36.042Z,41.00
2022-11-25T18:02:20.058Z,41.00
2022-11-25T18:04:56.066Z,41.30
2022-11-25T18:07:31.170Z,41.20
2022-11-25T18:10:06.940Z,41.50
2022-11-25T18:12:44.728Z,41.80
2022-11-25T18:15:27.392Z,41.70
2022-11-25T18:18:07.027Z,41.50
2022-11-25T18:20:41.995Z,41.50
2022-11-25T18:23:17.482Z,41.50
2022-11-25T18:25:53.295Z,41.60
2022-11-25T18:28:31.160Z,41.70
2022-11-25T18:31:06.808Z,42.00
2022-11-25T18:33:41.918Z,41.90
2022-11-25T18:36:16.960Z,42.00
2022-11-25T18:38:53.445Z,41.80
2022-11-25T18:41:28.568Z,42.00
2022-11-25T18:44:06.299Z,41.90
2022-11-25T18:46:41.206Z,41.80
2022-11-25T18:49:16.340Z,42.20
2022-11-25T18:51:51.292Z,42.10
2022-11-25T18:54:26.177Z,42.00
2022-11-25T18:57:01.622Z,42.00
2022-11-25T18:59:37.377Z,42.40
2022-11-25T19:02:18.392Z,42.60
2022-11-25T19:04:53.613Z,42.80
2022-11-25T19:07:28.640Z,44.20
2022-11-25T19:10:04.574Z,44.20
2022-11-25T19:12:45.792Z,44.30
2022-11-25T19:15:23.686Z,44.40
2022-11-25T19:18:02.822Z,44.50
2022-11-25T19:20:38.313Z,44.90
2022-11-25T19:23:25.282Z,45.40
2022-11-25T19:26:07.597Z,45.70
2022-11-25T19:28:47.166Z,45.30
2022-11-25T19:31:22.415Z,45.10
2022-11-25T19:33:57.750Z,45.20
2022-11-25T19:36:34.944Z,45.10
2022-11-25T19:39:20.452Z,45.10
2022-11-25T19:41:55.562Z,45.20
2022-11-25T19:44:30.495Z,45.10
2022-11-25T19:47:15.308Z,44.70
2022-11-25T19:49:53.759Z,44.60
2022-11-25T19:52:35.936Z,44.60
2022-11-25T19:55:23.368Z,45.00
2022-11-25T19:57:59.287Z,44.70
2022-11-25T20:00:34.768Z,44.50
2022-11-25T20:03:24.944Z,44.40
2022-11-25T20:05:59.889Z,44.60
2022-11-25T20:08:34.858Z,44.50
2022-11-25T20:11:15.889Z,44.50
2022-11-25T20:13:51.156Z,44.30
2022-11-25T20:16:39.706Z,44.30
2022-11-25T20:19:18.012Z,44.40
2022-11-25T20:21:53.003Z,44.90
2022-11-25T20:24:27.986Z,45.30
2022-11-25T20:27:02.907Z,45.60
2022-11-25T20:29:37.847Z,45.70
2022-11-25T20:32:29.317Z,45.90
2022-11-25T20:35:04.554Z,46.40
2022-11-25T20:37:50.979Z,46.70
2022-11-25T20:40:38.170Z,47.20
2022-11-25T20:43:34.429Z,47.10
2022-11-25T20:46:23.641Z,46.90
2022-11-25T20:49:03.271Z,47.00
2022-11-25T20:51:39.879Z,47.00
2022-11-25T20:54:15.163Z,47.10
2022-11-25T20:56:50.255Z,47.40
2022-11-25T20:59:25.251Z,47.40
2022-11-25T21:02:00.243Z,47.50
2022-11-25T21:04:35.508Z,47.20
2022-11-25T21:07:17.950Z,47.20
2022-11-25T21:09:53.018Z,47.10
2022-11-25T21:12:27.976Z,47.00
2022-11-25T21:15:14.238Z,47.00
2022-11-25T21:17:50.130Z,47.20
2022-11-25T21:20:25.319Z,46.90
2022-11-25T21:23:05.641Z,46.80
2022-11-25T21:25:40.600Z,46.20
2022-11-25T21:28:20.072Z,46.30
2022-11-25T21:30:55.034Z,46.50
2022-11-25T21:33:29.925Z,46.40
2022-11-25T21:36:05.084Z,47.00
2022-11-25T21:38:39.953Z,46.90
2022-11-25T21:41:15.022Z,47.50
2022-11-25T21:43:51.083Z,47.50
2022-11-25T21:46:26.566Z,47.80
2022-11-25T21:49:01.666Z,47.80
2022-11-25T21:51:36.565Z,47.80
2022-11-25T21:54:11.464Z,47.90
2022-11-25T21:56:46.782Z,47.80
2022-11-25T21:59:21.700Z,47.80
2022-11-25T22:01:57.063Z,47.90
2022-11-25T22:04:31.944Z,47.80
2022-11-25T22:07:06.853Z,47.70
2022-11-25T22:09:42.449Z,48.20
2022-11-25T22:12:30.774Z,48.60
2022-11-25T22:15:09.819Z,49.80
2022-11-25T22:17:45.708Z,50.90
2022-11-25T22:20:41.136Z,51.40
2022-11-25T22:23:22.491Z,51.70
2022-11-25T22:25:57.961Z,51.50
2022-11-25T22:28:34.229Z,51.40
2022-11-25T22:31:12.260Z,51.20
2022-11-25T22:33:47.706Z,51.00
2022-11-25T22:36:28.156Z,51.00
2022-11-25T22:39:25.175Z,52.10
2022-11-25T22:42:07.641Z,52.90
2022-11-25T22:44:47.936Z,53.50
2022-11-25T22:47:29.119Z,53.80
2022-11-25T22:50:30.890Z,54.00
2022-11-25T22:53:19.487Z,54.30
2022-11-25T22:55:58.477Z,54.60
2022-11-25T22:58:33.396Z,54.70
2022-11-25T23:01:16.367Z,55.20
2022-11-25T23:03:51.925Z,55.60
2022-11-25T23:06:27.130Z,55.80
2022-11-25T23:09:02.950Z,56.20
2022-11-25T23:11:40.147Z,56.40
2022-11-25T23:14:15.410Z,56.90
2022-11-25T23:16:50.369Z,57.10
2022-11-25T23:19:25.344Z,57.50
2022-11-25T23:22:00.293Z,58.20
2022-11-25T23:24:35.374Z,58.40
2022-11-25T23:27:10.708Z,58.60
2022-11-25T23:29:45.695Z,59.00
2022-11-25T23:32:20.972Z,59.30
2022-11-25T23:34:55.855Z,59.40
2022-11-25T23:37:30.893Z,59.70
2022-11-25T23:40:06.851Z,59.90
2022-11-25T23:42:41.827Z,60.10
2022-11-25T23:45:20.911Z,60.30
2022-11-25T23:47:56.905Z,60.40
2022-11-25T23:50:34.044Z,60.50
2022-11-25T23:53:21.786Z,60.40
2022-11-25T23:55:56.819Z,60.40
2022-11-25T23:58:31.696Z,60.30
